Data

From:  To:  PST   UTC
Description Unit Station From To Min. Max. Avg.
Water Temperature at Buoy °C Buoy 2022-01-13 16:03 2022-01-16 01:28 6.72 7.77 7.32
Weather: Air Temperature at Buoy °C Buoy 2022-01-13 13:17 2022-01-16 13:02 4.41 12.99 6.7
Wind Speed at Buoy m/s Buoy 2022-01-13 13:17 2022-01-16 13:02 0 4.33 1.41
Wind Direction at Buoy Deg. Buoy 2022-01-13 13:17 2022-01-16 13:02 0.42 358.7 185.4
Weather: Air Pressure at Buoy mb Buoy 2022-01-13 13:17 2022-01-16 13:02 1015.94 1032.91 1027.83
Weather: Relative Humidity at Buoy % Buoy 2022-01-13 13:17 2022-01-16 13:02 71.41 96.9 93.77
Weather: Solar Radiation at Buoy W/m² Buoy 2022-01-13 13:17 2022-01-16 13:02 0 375.4 35.91
Flow at Cedar River ft³/s Cedar River 2022-01-13 13:15 2022-01-16 13:00 1990 2550 2275.66
Water Temperature at Cedar River °C Cedar River 2022-01-13 13:15 2022-01-16 13:00 5.3 7.4 6.07
Stage at 37A ft 37A 2022-01-13 14:00 2022-01-16 13:00 2.49 3.13 2.76
Flow at 37A ft³/s 37A 2022-01-13 14:00 2022-01-16 13:00 64.5 144.25 94.89
Flow at Sammish River ft³/s Sammamish River-51T 2022-01-13 14:00 2022-01-16 13:00 22.16 23.14 22.7
Stage at 34A ft 34a 2022-01-13 14:00 2022-01-16 13:00 1.3 1.73 1.42
Flow at 34A ft³/s 34a 2022-01-13 14:00 2022-01-16 13:00 6.18 16.75 8.69
Water Temperature at 34A °C 34a 2022-01-13 14:00 2022-01-16 13:00 7.18 8.38 7.69
Stage at 35C ft 35C 2022-01-13 14:00 2022-01-16 10:00 3.34 3.65 3.44
Flow at 35C ft³/s 35C 2022-01-13 14:00 2022-01-16 10:00 24.91 44.16 30.68
Water Temperature at 35C °C 35C 2022-01-13 14:00 2022-01-16 13:00 5.49 6.44 5.95
Stage at COB-06C ft COB-06C 2022-01-13 14:00 2022-01-16 13:00 1.05 1.73 1.23
Flow at COB-06C ft³/s COB-06C 2022-01-13 14:00 2022-01-16 13:00 28 84.75 40.66
Stage at 27A ft 27a 2022-01-13 14:00 2022-01-16 13:00 3.54 4.11 3.69
Flow at 27A ft³/s 27a 2022-01-13 14:00 2022-01-16 13:00 13 45 20.07
Water Temperature at 27A °C 27a 2022-01-13 14:00 2022-01-16 13:00 7.14 8.26 7.69
Weather: Air Temperature at 27A °C 27a 2022-01-13 14:00 2022-01-16 13:00 5.06 10.8 6.82
Stage at 58A ft 58a 2022-01-13 14:00 2022-01-13 22:00 1.8 1.94 1.86
Flow at 58A ft³/s 58a 2022-01-13 14:00 2022-01-13 22:00 17.72 26.23 21.15
Water Temperature at 58A °C 58a 2022-01-13 14:00 2022-01-13 22:00 8.02 8.4 8.17
Weather: Air Temperature at 58A °C 58a 2022-01-13 14:00 2022-01-13 22:00 7.13 10.72 8.68
Wind Speed at Tacoma m/s Tacoma Airport 2022-01-13 13:17 2022-01-16 13:02 0 4.33 1.41
Wind Direction at Tacoma Deg. Tacoma Airport 2022-01-13 13:17 2022-01-16 13:02 0.42 358.7 185.4
Cloud Cover at Tacoma Tacoma Airport 2022-01-13 13:53 2022-01-16 09:53 0 1 0.23
Red lines represent missing data